Time;durP1;ratioP1;P1;durP2;ratioP2;P2;SDS_P1;SDS_P2;PMS_P1;PMS_P2;Temp;Humidity;BMP_temperature;BMP_pressure;BME280_temperature;BME280_humidity;BME280_pressure;Samples;Min_cycle;Max_cycle;Signal;HPM_P1;HPM_P2
2022/11/28 00:01:27;;;;;;;10.80;6.10;;;5.80;99.90;;;;;;5094652;28;20044;-77
2022/11/28 00:03:53;;;;;;;8.10;6.57;;;5.80;99.90;;;;;;5094909;28;20040;-76
2022/11/28 00:06:19;;;;;;;11.27;6.53;;;5.80;99.90;;;;;;5094784;28;20548;-76
2022/11/28 00:08:45;;;;;;;12.23;6.23;;;5.80;99.90;;;;;;5094605;28;20539;-76
2022/11/28 00:11:13;;;;;;;11.40;6.38;;;5.90;99.90;;;;;;5093562;28;20062;-77
2022/11/28 00:13:39;;;;;;;11.85;6.22;;;5.90;99.90;;;;;;5094939;28;20040;-76
2022/11/28 00:16:07;;;;;;;9.38;6.78;;;5.90;99.90;;;;;;5094544;28;20043;-77
2022/11/28 00:18:33;;;;;;;10.57;6.70;;;5.90;99.90;;;;;;5094691;28;20055;-77
2022/11/28 00:21:03;;;;;;;11.52;6.63;;;5.90;99.90;;;;;;5094442;28;20104;-76
2022/11/28 00:23:29;;;;;;;11.23;6.95;;;5.90;99.90;;;;;;5094150;28;20459;-77
2022/11/28 00:26:07;;;;;;;10.88;6.57;;;5.90;99.90;;;;;;5094141;28;20052;-76
2022/11/28 00:28:32;;;;;;;8.20;6.68;;;5.90;99.90;;;;;;5094285;28;20131;-77
2022/11/28 00:30:58;;;;;;;10.65;6.68;;;6.00;99.90;;;;;;5094340;28;20094;-77
2022/11/28 00:33:24;;;;;;;9.55;6.45;;;6.00;99.90;;;;;;5094458;28;20040;-78
2022/11/28 00:35:49;;;;;;;8.68;5.95;;;6.00;99.90;;;;;;5094244;28;20036;-76
2022/11/28 00:38:15;;;;;;;9.30;6.25;;;6.00;99.90;;;;;;5094486;28;20464;-77
2022/11/28 00:40:41;;;;;;;11.85;6.57;;;6.00;99.90;;;;;;5094835;28;20047;-77
2022/11/28 00:43:07;;;;;;;9.63;6.03;;;6.00;99.90;;;;;;5094474;28;20043;-77
2022/11/28 00:45:32;;;;;;;11.63;6.05;;;6.00;99.90;;;;;;5094421;28;20047;-77
2022/11/28 00:47:58;;;;;;;9.73;5.97;;;6.00;99.90;;;;;;5094011;28;20061;-77
2022/11/28 00:50:23;;;;;;;10.50;6.45;;;6.00;99.90;;;;;;5093937;28;20152;-77
2022/11/28 00:52:49;;;;;;;10.07;6.78;;;6.00;99.90;;;;;;5093807;28;20047;-76
2022/11/28 00:55:15;;;;;;;9.88;6.45;;;6.00;99.90;;;;;;5093939;28;20050;-77
2022/11/28 00:57:41;;;;;;;8.95;6.63;;;6.00;99.90;;;;;;5093944;28;20472;-76
2022/11/28 01:00:07;;;;;;;10.32;6.70;;;6.00;99.90;;;;;;5093880;28;20040;-77
2022/11/28 01:02:33;;;;;;;11.20;6.95;;;6.00;99.90;;;;;;5093864;28;20040;-77
2022/11/28 01:04:59;;;;;;;11.00;6.95;;;6.00;99.90;;;;;;5093582;28;20050;-77
2022/11/28 01:07:27;;;;;;;10.03;6.80;;;6.00;99.90;;;;;;5093513;28;20490;-77
2022/11/28 01:09:55;;;;;;;9.25;6.50;;;6.00;99.90;;;;;;5094100;28;20286;-76
2022/11/28 01:12:21;;;;;;;9.07;6.97;;;6.00;99.90;;;;;;5093591;28;20040;-77
2022/11/28 01:14:46;;;;;;;10.50;6.50;;;6.00;99.90;;;;;;5093756;28;20055;-77
2022/11/28 01:17:12;;;;;;;9.18;6.97;;;6.00;99.90;;;;;;5093652;28;20047;-77
2022/11/28 01:19:38;;;;;;;10.15;7.03;;;6.10;99.90;;;;;;5093538;28;20083;-77
2022/11/28 01:22:05;;;;;;;11.20;7.05;;;6.00;99.90;;;;;;5093534;28;20369;-76
2022/11/28 01:24:31;;;;;;;10.43;6.65;;;6.00;99.90;;;;;;5093073;28;20504;-77
2022/11/28 01:26:57;;;;;;;10.98;7.13;;;6.10;99.90;;;;;;5093917;28;20118;-77
2022/11/28 01:29:22;;;;;;;9.20;6.20;;;6.10;99.90;;;;;;5093629;28;20076;-77
2022/11/28 01:31:48;;;;;;;10.52;6.85;;;6.10;99.90;;;;;;5093458;28;20044;-77
2022/11/28 01:34:15;;;;;;;10.20;7.25;;;6.10;99.90;;;;;;5093454;28;20044;-76
2022/11/28 01:36:41;;;;;;;13.73;7.43;;;6.10;99.90;;;;;;5093381;28;20050;-76
2022/11/28 01:39:06;;;;;;;8.90;6.50;;;6.10;99.90;;;;;;5093390;28;20371;-76
2022/11/28 01:41:32;;;;;;;10.77;6.38;;;6.10;99.90;;;;;;5093338;28;20082;-76
2022/11/28 01:44:27;;;;;;;8.45;6.50;;;6.10;99.90;;;;;;5093320;28;20047;-77
2022/11/28 01:46:53;;;;;;;9.95;6.68;;;6.10;99.90;;;;;;5093241;28;20055;-77
2022/11/28 01:49:27;;;;;;;12.50;6.63;;;6.20;99.90;;;;;;5093477;28;20051;-77
2022/11/28 01:51:58;;;;;;;10.07;6.45;;;6.10;99.90;;;;;;5094113;28;20044;-76
2022/11/28 01:54:25;;;;;;;8.68;6.32;;;6.10;99.90;;;;;;5093630;28;20036;-76
2022/11/28 01:56:57;;;;;;;10.48;6.78;;;6.10;99.90;;;;;;5093592;28;20392;-77
2022/11/28 01:59:26;;;;;;;7.97;6.38;;;6.20;99.90;;;;;;5093475;28;20083;-77
2022/11/28 02:01:52;;;;;;;9.35;6.43;;;6.20;99.90;;;;;;5093531;28;20051;-75
2022/11/28 02:04:18;;;;;;;10.18;6.55;;;6.20;99.90;;;;;;5093193;28;20127;-76
2022/11/28 02:06:44;;;;;;;12.10;7.30;;;6.10;99.90;;;;;;5092345;28;20040;-76
2022/11/28 02:09:15;;;;;;;9.77;6.95;;;6.10;99.90;;;;;;5093172;28;20343;-77
2022/11/28 02:12:05;;;;;;;11.55;6.82;;;6.10;99.90;;;;;;5093167;28;20040;-77
2022/11/28 02:14:42;;;;;;;12.43;7.05;;;6.10;99.90;;;;;;5092762;28;20441;-77
2022/11/28 02:17:27;;;;;;;10.98;6.60;;;6.20;99.90;;;;;;5094360;28;20048;-78
2022/11/28 02:20:12;;;;;;;9.10;6.75;;;6.20;99.90;;;;;;5097384;28;20040;-77
2022/11/28 02:22:46;;;;;;;9.60;6.38;;;6.20;99.90;;;;;;5096733;28;20491;-77
2022/11/28 02:25:38;;;;;;;8.18;6.25;;;6.20;99.90;;;;;;5097167;28;20052;-77
2022/11/28 02:28:51;;;;;;;9.95;7.38;;;6.20;99.90;;;;;;5096935;28;20055;-77
2022/11/28 02:31:35;;;;;;;16.40;7.05;;;6.20;99.90;;;;;;5089368;28;20112;-77
2022/11/28 02:34:11;;;;;;;10.60;6.35;;;6.30;99.90;;;;;;5096783;28;20040;-77
2022/11/28 02:36:49;;;;;;;11.57;7.18;;;6.30;99.90;;;;;;5096770;28;20059;-78
2022/11/28 02:39:38;;;;;;;11.20;6.85;;;6.30;99.90;;;;;;5096134;28;20526;-77
2022/11/28 02:42:03;;;;;;;10.25;6.78;;;6.30;99.90;;;;;;5058300;28;20488;-77
2022/11/28 02:44:42;;;;;;;8.98;7.10;;;6.30;99.90;;;;;;5096194;28;20056;-77
2022/11/28 02:47:14;;;;;;;11.90;7.07;;;6.30;99.90;;;;;;5096474;28;20369;-76
2022/11/28 02:49:47;;;;;;;10.35;7.18;;;6.30;99.90;;;;;;5096405;28;20040;-76
2022/11/28 02:52:20;;;;;;;11.75;7.18;;;6.30;99.90;;;;;;5096681;28;20044;-77
2022/11/28 02:54:49;;;;;;;8.98;6.70;;;6.40;99.90;;;;;;5095963;28;20093;-77
2022/11/28 02:57:15;;;;;;;12.27;6.72;;;6.40;99.90;;;;;;5096846;28;20460;-77
2022/11/28 02:59:40;;;;;;;10.10;7.20;;;6.40;99.90;;;;;;5095699;28;20076;-76
2022/11/28 03:02:29;;;;;;;11.95;7.07;;;6.40;99.90;;;;;;5096254;28;20048;-77
2022/11/28 03:05:11;;;;;;;;;;;6.40;99.90;;;;;;5096775;28;20122;-77
2022/11/28 03:08:09;;;;;;;10.20;7.15;;;6.40;99.90;;;;;;5096188;28;19920;-76
2022/11/28 03:11:00;;;;;;;11.18;7.07;;;6.40;99.90;;;;;;5095785;28;20044;-76
2022/11/28 03:13:43;;;;;;;12.10;7.15;;;6.40;99.90;;;;;;5057754;28;20145;-76
2022/11/28 03:16:29;;;;;;;10.82;7.18;;;6.40;99.90;;;;;;5095760;28;20415;-77
2022/11/28 03:19:16;;;;;;;13.00;7.35;;;6.50;99.90;;;;;;5095564;28;20389;-76
2022/11/28 03:21:47;;;;;;;11.50;7.67;;;6.50;99.90;;;;;;5095732;28;20051;-77
2022/11/28 03:24:29;;;;;;;9.73;7.57;;;6.50;99.90;;;;;;5094548;28;20135;-76
2022/11/28 03:27:05;;;;;;;11.63;7.80;;;6.50;99.90;;;;;;5095701;28;20064;-76
2022/11/28 03:29:45;;;;;;;11.77;7.22;;;6.50;99.90;;;;;;5094256;28;20701;-76
2022/11/28 03:32:17;;;;;;;11.38;7.35;;;6.50;99.90;;;;;;5095334;28;20476;-77
2022/11/28 03:34:47;;;;;;;10.90;7.68;;;6.60;99.90;;;;;;5095622;28;20115;-76
2022/11/28 03:37:19;;;;;;;12.93;8.15;;;6.60;99.90;;;;;;5095600;28;20400;-77
2022/11/28 03:39:50;;;;;;;11.90;7.82;;;6.60;99.90;;;;;;5095525;28;20048;-77
2022/11/28 03:42:22;;;;;;;10.75;7.97;;;6.60;99.90;;;;;;5096112;28;20055;-77
2022/11/28 03:44:56;;;;;;;11.52;8.27;;;6.60;99.90;;;;;;5095838;28;20127;-77
2022/11/28 03:47:27;;;;;;;12.50;8.40;;;6.60;99.90;;;;;;5095387;28;20093;-76
2022/11/28 03:49:55;;;;;;;14.38;9.13;;;6.60;99.90;;;;;;5095242;28;20083;-76
2022/11/28 03:52:30;;;;;;;13.35;8.80;;;6.70;99.90;;;;;;5094930;28;20130;-77
2022/11/28 03:55:20;;;;;;;13.35;9.27;;;6.70;99.90;;;;;;5094817;28;20050;-76
2022/11/28 03:58:13;;;;;;;12.85;9.15;;;6.70;99.90;;;;;;5094475;28;20063;-77
2022/11/28 04:00:50;;;;;;;14.15;9.02;;;6.70;99.90;;;;;;5094562;28;20085;-77
2022/11/28 04:03:44;;;;;;;13.37;9.20;;;6.70;99.90;;;;;;5095652;28;20066;-76
2022/11/28 04:06:43;;;;;;;13.30;9.23;;;6.70;99.90;;;;;;5095302;28;20118;-77
2022/11/28 04:09:12;;;;;;;;;;;6.70;99.90;;;;;;5095753;28;20040;-77
2022/11/28 04:11:50;;;;;;;12.30;9.10;;;6.70;99.90;;;;;;5095187;28;19944;-77
2022/11/28 04:14:23;;;;;;;14.25;10.55;;;6.70;99.90;;;;;;5095577;28;20048;-77
2022/11/28 04:16:59;;;;;;;20.92;11.23;;;6.70;99.90;;;;;;5094089;28;20055;-76
2022/11/28 04:19:32;;;;;;;15.45;11.32;;;6.70;99.90;;;;;;5094579;28;20043;-77
2022/11/28 04:22:14;;;;;;;15.32;10.45;;;6.70;99.90;;;;;;5094545;28;20052;-77
2022/11/28 04:24:44;;;;;;;15.98;11.45;;;6.70;99.90;;;;;;5094453;28;20060;-77
2022/11/28 04:27:14;;;;;;;17.92;11.10;;;6.70;99.90;;;;;;5094176;28;20085;-77
2022/11/28 04:29:45;;;;;;;17.42;11.57;;;6.80;99.90;;;;;;5094108;28;20039;-77
2022/11/28 04:32:12;;;;;;;18.13;12.02;;;6.80;99.90;;;;;;5094277;28;20046;-77
2022/11/28 04:34:41;;;;;;;24.35;11.98;;;6.80;99.90;;;;;;5094084;28;20047;-76
2022/11/28 04:37:09;;;;;;;16.48;11.95;;;6.80;99.90;;;;;;5094187;28;20503;-76
2022/11/28 04:39:36;;;;;;;19.50;12.68;;;6.80;99.90;;;;;;5093791;28;20097;-77
2022/11/28 04:42:27;;;;;;;16.05;11.80;;;6.80;99.90;;;;;;5094131;28;20044;-77
2022/11/28 04:45:13;;;;;;;16.55;12.52;;;6.90;99.90;;;;;;5093249;28;20056;-77
2022/11/28 04:47:39;;;;;;;18.27;13.18;;;6.90;99.90;;;;;;5094012;28;20090;-78
2022/11/28 04:50:05;;;;;;;17.27;12.05;;;6.90;99.90;;;;;;5093869;28;20044;-77
2022/11/28 04:53:11;;;;;;;18.30;13.25;;;6.90;99.90;;;;;;5093882;28;20070;-76
2022/11/28 04:55:45;;;;;;;20.38;14.23;;;7.00;99.90;;;;;;5011663;28;20052;-77
2022/11/28 04:58:20;;;;;;;21.52;13.75;;;7.00;99.90;;;;;;5084702;28;20097;-78
2022/11/28 05:00:49;;;;;;;22.25;14.95;;;7.00;99.90;;;;;;5093765;28;20044;-78
2022/11/28 05:03:15;;;;;;;22.63;15.32;;;7.00;99.90;;;;;;5093929;28;20096;-77
2022/11/28 05:05:47;;;;;;;23.73;14.40;;;7.10;99.90;;;;;;5100987;28;20040;-76
2022/11/28 05:08:12;;;;;;;21.63;14.40;;;7.10;99.90;;;;;;5101741;28;20369;-76
2022/11/28 05:10:38;;;;;;;22.17;15.40;;;7.10;99.90;;;;;;5113473;28;20047;-76
2022/11/28 05:13:04;;;;;;;22.27;15.90;;;7.10;99.90;;;;;;5114086;28;20028;-75
2022/11/28 05:15:30;;;;;;;17.25;13.50;;;7.10;99.90;;;;;;5115249;28;20103;-76
2022/11/28 05:17:55;;;;;;;21.08;14.57;;;7.20;99.90;;;;;;5114300;28;20048;-76
2022/11/28 05:20:21;;;;;;;21.90;15.18;;;7.20;99.90;;;;;;5094372;28;20384;-76
2022/11/28 05:22:47;;;;;;;22.05;15.00;;;7.20;99.90;;;;;;5093580;28;20472;-77
2022/11/28 05:25:12;;;;;;;22.02;13.77;;;7.20;99.90;;;;;;5093536;28;20060;-76
2022/11/28 05:27:38;;;;;;;19.02;12.93;;;7.20;99.90;;;;;;5093415;28;20056;-77
2022/11/28 05:30:05;;;;;;;19.33;13.38;;;7.30;99.90;;;;;;5093574;28;20051;-77
2022/11/28 05:32:31;;;;;;;21.40;13.93;;;7.20;99.90;;;;;;5093222;28;20492;-77
2022/11/28 05:34:57;;;;;;;18.75;13.77;;;7.30;99.90;;;;;;5109098;28;20036;-78
2022/11/28 05:37:24;;;;;;;24.15;14.50;;;7.30;99.90;;;;;;5115488;28;20039;-77
2022/11/28 05:39:50;;;;;;;20.35;13.13;;;7.30;99.90;;;;;;5114685;28;20059;-76
2022/11/28 05:42:15;;;;;;;22.48;13.18;;;7.30;99.90;;;;;;5114403;28;20040;-77
2022/11/28 05:44:41;;;;;;;21.42;13.55;;;7.30;99.90;;;;;;5114857;28;20040;-75
2022/11/28 05:47:07;;;;;;;19.20;13.43;;;7.40;99.90;;;;;;5115143;28;20075;-77
2022/11/28 05:49:32;;;;;;;18.85;13.73;;;7.30;99.90;;;;;;5102195;28;20477;-78
2022/11/28 05:51:58;;;;;;;19.15;13.35;;;7.40;99.90;;;;;;5093261;28;20093;-77
2022/11/28 05:54:24;;;;;;;18.75;13.95;;;7.40;99.90;;;;;;5097172;28;20042;-78
2022/11/28 05:56:49;;;;;;;17.88;13.38;;;7.40;99.90;;;;;;5097329;28;20048;-77
2022/11/28 05:59:15;;;;;;;19.02;13.13;;;7.40;99.90;;;;;;5096979;28;20036;-77
2022/11/28 06:01:41;;;;;;;17.40;12.63;;;7.40;99.90;;;;;;5097333;28;20164;-77
2022/11/28 06:04:06;;;;;;;19.17;13.75;;;7.40;99.90;;;;;;5097064;28;20527;-78
2022/11/28 06:06:33;;;;;;;19.05;13.82;;;7.40;99.90;;;;;;5097151;28;20032;-77
2022/11/28 06:08:59;;;;;;;20.15;14.35;;;7.40;99.90;;;;;;5097600;28;20465;-77
2022/11/28 06:11:28;;;;;;;19.27;14.48;;;7.40;99.90;;;;;;5097320;28;20052;-77
2022/11/28 06:13:54;;;;;;;17.45;13.52;;;7.60;99.90;;;;;;5096857;28;20044;-76
2022/11/28 06:16:22;;;;;;;17.67;13.27;;;7.40;99.90;;;;;;5096832;28;20048;-76
2022/11/28 06:18:55;;;;;;;19.35;13.15;;;7.40;99.90;;;;;;5096535;28;20538;-75
2022/11/28 06:21:22;;;;;;;17.23;13.20;;;7.40;99.90;;;;;;5096787;28;20048;-76
2022/11/28 06:23:47;;;;;;;20.20;13.82;;;7.40;99.90;;;;;;5096828;28;20044;-76
2022/11/28 06:26:16;;;;;;;14.55;11.50;;;8.10;99.90;;;;;;5096541;28;20521;-81
2022/11/28 06:28:41;;;;;;;20.48;12.95;;;7.40;99.90;;;;;;5095476;28;20123;-77
2022/11/28 06:31:12;;;;;;;19.15;12.30;;;7.40;99.90;;;;;;5096525;28;20079;-76
2022/11/28 06:33:38;;;;;;;16.63;12.15;;;7.40;99.90;;;;;;5096542;28;20361;-76
2022/11/28 06:36:04;;;;;;;17.27;12.20;;;7.40;99.90;;;;;;5096912;28;20105;-76
2022/11/28 06:38:30;;;;;;;17.20;11.60;;;7.40;99.90;;;;;;5096461;28;20154;-75
2022/11/28 06:41:02;;;;;;;16.55;11.50;;;7.40;99.90;;;;;;5096525;28;20110;-78
2022/11/28 06:43:28;;;;;;;15.80;11.93;;;7.40;99.90;;;;;;5096126;28;20508;-76
2022/11/28 06:45:54;;;;;;;16.48;12.15;;;7.40;99.90;;;;;;5096346;28;20043;-79
2022/11/28 06:48:20;;;;;;;16.48;11.90;;;8.10;99.90;;;;;;5096193;28;20044;-78
2022/11/28 06:50:46;;;;;;;18.70;12.00;;;7.40;99.90;;;;;;5096601;28;20480;-76
2022/11/28 06:53:12;;;;;;;18.20;12.68;;;7.40;99.90;;;;;;5096561;28;20042;-76
2022/11/28 06:55:38;;;;;;;17.37;12.10;;;7.40;99.90;;;;;;5096975;28;20051;-77
2022/11/28 06:58:03;;;;;;;15.02;11.68;;;7.40;99.90;;;;;;5096531;28;20047;-77
2022/11/28 07:00:29;;;;;;;19.42;13.48;;;7.40;99.90;;;;;;5096851;28;20040;-76
2022/11/28 07:02:56;;;;;;;17.15;12.40;;;7.40;99.90;;;;;;5096566;28;20071;-78
2022/11/28 07:05:26;;;;;;;17.73;12.80;;;7.50;99.90;;;;;;5095018;28;20055;-77
2022/11/28 07:07:52;;;;;;;20.65;13.18;;;7.40;99.90;;;;;;5096543;28;20495;-77
2022/11/28 07:10:18;;;;;;;17.13;13.90;;;7.40;99.90;;;;;;5095551;28;20043;-77
2022/11/28 07:12:44;;;;;;;18.00;12.38;;;7.50;99.90;;;;;;5095773;28;20192;-78
2022/11/28 07:15:10;;;;;;;21.65;13.18;;;7.40;99.90;;;;;;5095502;28;20081;-78
2022/11/28 07:17:36;;;;;;;22.42;14.73;;;7.40;99.90;;;;;;5096194;28;20048;-78
2022/11/28 07:20:02;;;;;;;20.45;13.75;;;7.40;99.90;;;;;;5095627;28;20070;-80
2022/11/28 07:22:27;;;;;;;18.38;13.27;;;7.80;99.90;;;;;;5095651;28;20118;-77
2022/11/28 07:24:53;;;;;;;23.67;15.35;;;7.40;99.90;;;;;;5095798;28;20552;-78
2022/11/28 07:27:18;;;;;;;19.48;14.02;;;7.40;99.90;;;;;;5095408;28;20052;-75
2022/11/28 07:29:44;;;;;;;20.27;15.70;;;7.40;99.90;;;;;;5095399;28;20084;-78
2022/11/28 07:32:10;;;;;;;22.80;14.95;;;7.40;99.90;;;;;;5095494;28;20083;-79
2022/11/28 07:34:35;;;;;;;21.52;14.77;;;7.40;99.90;;;;;;5095536;28;20087;-77
2022/11/28 07:37:01;;;;;;;22.50;14.68;;;7.40;99.90;;;;;;5095288;28;20036;-77
2022/11/28 07:39:26;;;;;;;19.63;15.02;;;7.40;99.90;;;;;;5095453;28;20036;-78
2022/11/28 07:41:52;;;;;;;21.85;15.13;;;7.80;99.90;;;;;;5095273;28;20384;-76
2022/11/28 07:44:18;;;;;;;23.15;15.77;;;7.40;99.90;;;;;;5094911;28;20134;-78
2022/11/28 07:46:44;;;;;;;22.23;14.98;;;7.40;99.90;;;;;;5094753;28;20051;-77
2022/11/28 07:49:12;;;;;;;24.52;16.15;;;7.40;99.90;;;;;;5095108;28;20048;-76
2022/11/28 07:51:38;;;;;;;22.75;16.45;;;7.40;99.90;;;;;;5095277;28;20036;-75
2022/11/28 07:54:05;;;;;;;22.67;15.60;;;7.40;99.90;;;;;;5095279;28;20040;-79
2022/11/28 07:56:34;;;;;;;23.10;15.85;;;7.30;99.90;;;;;;5095273;28;20043;-78
2022/11/28 07:59:00;;;;;;;23.60;16.65;;;7.40;99.90;;;;;;5094788;28;20043;-77
2022/11/28 08:01:28;;;;;;;22.93;15.90;;;7.40;99.90;;;;;;5095387;28;20508;-77
2022/11/28 08:03:55;;;;;;;23.05;16.08;;;7.40;99.90;;;;;;5094940;28;20293;-77
2022/11/28 08:06:24;;;;;;;23.17;15.73;;;7.40;99.90;;;;;;5095060;28;20178;-78
2022/11/28 08:08:51;;;;;;;22.50;15.48;;;7.40;99.90;;;;;;5094651;28;20080;-76
2022/11/28 08:11:18;;;;;;;23.02;16.85;;;7.40;99.90;;;;;;5094729;28;20048;-77
2022/11/28 08:13:44;;;;;;;29.40;16.85;;;7.40;99.90;;;;;;5094188;28;20500;-76
2022/11/28 08:16:18;;;;;;;22.20;15.57;;;7.40;99.90;;;;;;5093956;28;20048;-76
2022/11/28 08:18:44;;;;;;;26.58;16.58;;;7.40;99.90;;;;;;5094927;28;20427;-77
2022/11/28 08:21:16;;;;;;;24.35;16.42;;;7.40;99.90;;;;;;5094664;28;20059;-75
2022/11/28 08:23:44;;;;;;;25.23;16.90;;;7.40;99.90;;;;;;5094290;28;20506;-84
2022/11/28 08:26:12;;;;;;;24.52;16.95;;;7.40;99.90;;;;;;5093902;28;20101;-77
2022/11/28 08:28:38;;;;;;;24.65;17.15;;;7.40;99.90;;;;;;5094586;28;20415;-77
2022/11/28 08:31:14;;;;;;;27.80;17.67;;;7.70;99.90;;;;;;5094290;28;20040;-77
2022/11/28 08:33:39;;;;;;;23.38;16.85;;;7.40;99.90;;;;;;5094232;28;20051;-77
2022/11/28 08:36:07;;;;;;;24.48;16.10;;;7.40;99.90;;;;;;5094402;28;20044;-77
2022/11/28 08:38:32;;;;;;;;;;;7.40;99.90;;;;;;5094731;28;20079;-77
2022/11/28 08:41:02;;;;;;;24.05;17.27;;;7.40;99.90;;;;;;5094094;28;20395;-77
2022/11/28 08:43:28;;;;;;;27.23;18.27;;;7.40;99.90;;;;;;5093991;28;20052;-79
2022/11/28 08:45:54;;;;;;;26.83;17.40;;;7.50;99.90;;;;;;5094061;28;20122;-78
2022/11/28 08:48:19;;;;;;;25.00;17.15;;;7.40;99.90;;;;;;5094025;28;20079;-78
2022/11/28 08:50:46;;;;;;;27.90;18.20;;;7.50;99.90;;;;;;5093256;28;20062;-78
2022/11/28 08:53:12;;;;;;;;;;;7.50;99.90;;;;;;5095092;28;20040;-79
2022/11/28 08:55:40;;;;;;;26.98;18.63;;;7.50;99.90;;;;;;5095403;28;19920;-78
2022/11/28 08:58:06;;;;;;;26.98;19.35;;;7.50;99.90;;;;;;5094115;28;20126;-78
2022/11/28 09:00:31;;;;;;;26.52;18.60;;;7.50;99.90;;;;;;5094335;28;20075;-78
2022/11/28 09:02:57;;;;;;;29.25;18.55;;;7.50;99.90;;;;;;5093068;28;20127;-75
2022/11/28 09:05:22;;;;;;;23.88;17.50;;;7.50;99.90;;;;;;5094067;28;20036;-78
2022/11/28 09:07:48;;;;;;;25.13;17.33;;;7.50;99.90;;;;;;5093735;28;20039;-77
2022/11/28 09:10:14;;;;;;;23.63;17.33;;;7.50;99.90;;;;;;5093637;28;20488;-78
2022/11/28 09:12:39;;;;;;;28.40;18.98;;;7.50;99.90;;;;;;5092460;28;20044;-78
2022/11/28 09:15:06;;;;;;;26.98;18.15;;;7.50;99.90;;;;;;5088433;28;20045;-77
2022/11/28 09:17:31;;;;;;;23.47;16.73;;;7.50;99.90;;;;;;5073219;28;20051;-78
2022/11/28 09:19:57;;;;;;;24.38;17.17;;;7.40;99.90;;;;;;5073266;28;20735;-75
2022/11/28 09:22:22;;;;;;;23.92;16.63;;;7.50;99.90;;;;;;5073454;28;20036;-76
2022/11/28 09:24:48;;;;;;;24.50;16.35;;;7.50;99.90;;;;;;5072836;28;20055;-77
2022/11/28 09:27:13;;;;;;;22.30;16.00;;;7.50;99.90;;;;;;5076599;28;20055;-76
2022/11/28 09:29:39;;;;;;;24.88;16.92;;;7.50;99.90;;;;;;5076242;28;20055;-75
2022/11/28 09:32:05;;;;;;;24.42;16.30;;;7.60;99.90;;;;;;5077551;28;20047;-77
2022/11/28 09:34:30;;;;;;;23.55;16.33;;;7.60;99.90;;;;;;5077152;28;20113;-78
2022/11/28 09:36:56;;;;;;;24.25;16.02;;;7.60;99.90;;;;;;5077115;28;20051;-76
2022/11/28 09:39:21;;;;;;;23.40;15.80;;;7.60;99.90;;;;;;5076825;28;20048;-75
2022/11/28 09:41:56;;;;;;;23.63;15.55;;;7.60;99.90;;;;;;5076117;28;20132;-75
2022/11/28 09:44:37;;;;;;;20.58;14.55;;;7.60;99.90;;;;;;5077211;28;20476;-74
2022/11/28 09:47:07;;;;;;;20.33;15.05;;;7.60;99.90;;;;;;5077049;28;20067;-79
2022/11/28 09:49:43;;;;;;;21.33;15.13;;;7.60;99.90;;;;;;5077078;28;20044;-78
2022/11/28 09:52:27;;;;;;;19.52;14.88;;;7.70;99.90;;;;;;5075538;28;20102;-78
2022/11/28 09:55:32;;;;;;;19.83;14.75;;;7.60;99.90;;;;;;5077235;28;20044;-80
2022/11/28 09:58:04;;;;;;;19.83;14.15;;;7.60;99.90;;;;;;5076737;28;20512;-83
2022/11/28 10:00:40;;;;;;;20.80;14.25;;;7.60;99.90;;;;;;5076937;28;20045;-81
2022/11/28 10:03:14;;;;;;;20.60;14.63;;;7.60;99.90;;;;;;5076697;28;20481;-81
2022/11/28 10:06:11;;;;;;;21.67;13.77;;;7.60;99.90;;;;;;5076739;28;20040;-83
2022/11/28 10:08:40;;;;;;;18.92;14.00;;;7.60;99.90;;;;;;5076685;28;20102;-82
2022/11/28 10:11:44;;;;;;;17.38;13.70;;;7.60;99.90;;;;;;5077188;28;20048;-79
2022/11/28 10:14:20;;;;;;;18.85;13.40;;;7.70;99.90;;;;;;5077541;28;20116;-81
2022/11/28 10:16:48;;;;;;;20.15;13.93;;;7.70;99.90;;;;;;5076760;28;20476;-79
2022/11/28 10:19:18;;;;;;;15.45;12.27;;;7.70;99.90;;;;;;5076539;28;20055;-79
2022/11/28 10:21:48;;;;;;;19.58;13.00;;;7.70;99.90;;;;;;5076524;28;20041;-82
2022/11/28 10:24:22;;;;;;;16.77;12.32;;;7.70;99.90;;;;;;5076264;28;20043;-79
2022/11/28 10:26:52;;;;;;;16.50;12.93;;;7.70;99.90;;;;;;5075620;28;20055;-79
2022/11/28 10:29:50;;;;;;;16.25;13.02;;;7.70;99.90;;;;;;5076825;28;20048;-80
2022/11/28 10:32:27;;;;;;;17.38;12.07;;;7.70;99.90;;;;;;5031571;28;20059;-79
2022/11/28 10:35:20;;;;;;;17.70;12.00;;;7.70;99.90;;;;;;5076256;28;20119;-80
2022/11/28 10:37:47;;;;;;;18.90;12.45;;;7.70;99.90;;;;;;5075431;28;20048;-79
2022/11/28 10:40:26;;;;;;;17.73;12.25;;;7.00;99.90;;;;;;5075987;28;20051;-80
2022/11/28 10:42:59;;;;;;;16.25;12.23;;;7.70;99.90;;;;;;5075977;28;20169;-79
2022/11/28 10:45:41;;;;;;;17.83;12.85;;;7.70;99.90;;;;;;5076050;28;20082;-79
2022/11/28 10:48:26;;;;;;;16.65;12.63;;;7.70;99.90;;;;;;5076089;28;20047;-80
2022/11/28 10:51:02;;;;;;;15.93;12.77;;;7.70;99.90;;;;;;5061474;28;20075;-79
2022/11/28 10:53:58;;;;;;;17.75;12.70;;;7.80;99.90;;;;;;5074776;28;20480;-79
2022/11/28 10:56:35;;;;;;;15.45;11.90;;;7.80;99.90;;;;;;5075606;28;20393;-79
2022/11/28 10:59:17;;;;;;;15.43;12.20;;;7.80;99.90;;;;;;5075643;28;20051;-84
2022/11/28 11:01:42;;;;;;;16.88;13.00;;;7.80;99.90;;;;;;5075604;28;20044;-79
2022/11/28 11:04:18;;;;;;;17.80;13.35;;;7.80;99.90;;;;;;5075425;28;20048;-77
2022/11/28 11:07:13;;;;;;;17.85;13.30;;;7.80;99.90;;;;;;5075561;28;20076;-78
2022/11/28 11:09:38;;;;;;;18.15;12.95;;;7.80;99.90;;;;;;5060689;28;20059;-79
2022/11/28 11:12:12;;;;;;;19.33;14.30;;;7.80;99.90;;;;;;5075374;28;20041;-79
2022/11/28 11:14:42;;;;;;;16.77;13.05;;;7.80;99.90;;;;;;5075220;28;20047;-76
2022/11/28 11:17:30;;;;;;;18.02;12.95;;;7.80;99.90;;;;;;5075643;28;20040;-78
2022/11/28 11:19:56;;;;;;;20.55;14.20;;;7.80;99.90;;;;;;5075373;28;20045;-78
2022/11/28 11:22:27;;;;;;;16.20;12.30;;;7.80;99.90;;;;;;5075283;28;20044;-77
2022/11/28 11:25:11;;;;;;;17.65;13.55;;;7.90;99.90;;;;;;5075449;28;20392;-77
2022/11/28 11:27:37;;;;;;;16.13;12.50;;;7.90;99.90;;;;;;5075269;28;20047;-79
2022/11/28 11:30:25;;;;;;;19.02;13.15;;;7.80;99.90;;;;;;5075120;28;20041;-78
2022/11/28 11:32:51;;;;;;;15.75;12.15;;;7.90;99.90;;;;;;5075145;28;20381;-75
2022/11/28 11:35:21;;;;;;;17.67;12.57;;;7.90;99.90;;;;;;5075088;28;20040;-78
2022/11/28 11:37:47;;;;;;;16.80;12.63;;;7.90;99.90;;;;;;5079761;28;20048;-77
2022/11/28 11:40:27;;;;;;;17.92;13.32;;;7.90;99.90;;;;;;5075254;28;20051;-76
2022/11/28 11:42:56;;;;;;;18.08;12.68;;;7.90;99.90;;;;;;5074632;28;20040;-78
2022/11/28 11:45:36;;;;;;;18.27;13.00;;;7.90;99.90;;;;;;5075054;28;20037;-78
2022/11/28 11:48:03;;;;;;;16.88;12.60;;;7.90;99.90;;;;;;5074928;28;20044;-78
2022/11/28 11:50:30;;;;;;;13.75;12.10;;;7.90;99.90;;;;;;5073550;28;20445;-77
2022/11/28 11:53:09;;;;;;;15.65;13.15;;;7.90;99.90;;;;;;5074668;28;20400;-77
2022/11/28 11:55:48;;;;;;;16.80;13.55;;;7.90;99.90;;;;;;5074880;28;20449;-78
2022/11/28 11:58:19;;;;;;;17.83;12.95;;;7.90;99.90;;;;;;5074988;28;20053;-77
2022/11/28 12:00:45;;;;;;;16.38;12.82;;;7.80;99.90;;;;;;5074648;28;20036;-79
2022/11/28 12:03:30;;;;;;;19.40;12.93;;;7.90;99.90;;;;;;5074228;28;20052;-81
2022/11/28 12:06:05;;;;;;;16.50;12.55;;;7.90;99.90;;;;;;5074402;28;20302;-79
2022/11/28 12:08:40;;;;;;;16.23;12.32;;;7.90;99.90;;;;;;5074749;28;20044;-76
2022/11/28 12:11:14;;;;;;;18.13;12.40;;;8.30;99.90;;;;;;5074771;28;20131;-79
2022/11/28 12:13:40;;;;;;;15.40;12.15;;;7.90;99.90;;;;;;5074277;28;20147;-78
2022/11/28 12:16:11;;;;;;;16.08;12.55;;;7.90;99.90;;;;;;5074412;28;20201;-76
2022/11/28 12:18:43;;;;;;;14.80;12.75;;;8.00;99.90;;;;;;5075106;28;20181;-79
2022/11/28 12:21:36;;;;;;;16.45;12.88;;;7.90;99.90;;;;;;5074057;28;20428;-80
2022/11/28 12:24:20;;;;;;;20.67;12.77;;;8.00;99.90;;;;;;5063784;28;20063;-77
2022/11/28 12:26:57;;;;;;;16.73;12.95;;;7.90;99.90;;;;;;5073858;28;20098;-76
2022/11/28 12:29:44;;;;;;;18.70;12.98;;;8.00;99.90;;;;;;5074179;28;20128;-78
2022/11/28 12:32:21;;;;;;;17.00;13.07;;;8.00;99.90;;;;;;5073811;28;20045;-78
2022/11/28 12:35:18;;;;;;;18.30;13.20;;;8.00;99.90;;;;;;5074013;28;20123;-78
2022/11/28 12:38:26;;;;;;;17.67;12.68;;;8.00;99.90;;;;;;5074730;28;20079;-78
2022/11/28 12:41:22;;;;;;;15.75;12.65;;;8.00;99.90;;;;;;5046775;28;20063;-77
2022/11/28 12:43:55;;;;;;;16.92;13.00;;;8.00;99.90;;;;;;5074146;28;20044;-76
2022/11/28 12:46:38;;;;;;;17.80;12.90;;;8.00;99.90;;;;;;5073914;28;20080;-78
2022/11/28 12:49:18;;;;;;;17.23;13.05;;;8.00;99.90;;;;;;5073925;28;20496;-78
2022/11/28 12:52:05;;;;;;;17.27;13.13;;;8.00;99.90;;;;;;5073650;28;20542;-79
2022/11/28 12:54:35;;;;;;;16.95;12.38;;;8.00;99.90;;;;;;5073650;28;20174;-77
2022/11/28 12:57:26;;;;;;;17.42;12.80;;;8.00;99.90;;;;;;5073897;28;20045;-78
2022/11/28 12:59:58;;;;;;;16.40;12.75;;;8.00;99.90;;;;;;5073611;28;20174;-77
2022/11/28 13:02:39;;;;;;;16.77;13.25;;;8.10;99.90;;;;;;5072124;28;20044;-79
2022/11/28 13:05:24;;;;;;;15.68;12.82;;;8.10;99.90;;;;;;5073810;28;20447;-81
2022/11/28 13:08:12;;;;;;;15.88;11.80;;;8.10;99.90;;;;;;5073315;28;20515;-76